Terminal Aerodrome Forecast
Issued by NWS

Home | Current Version | Previous Version | Text Only | Print | Product List | Glossary On
Versions: 1 2 3 4 5 6 7 8 9 10 11 12
000
FTUS42 KTAE 220526
TAFECP
TAF
KECP 220526Z 2206/2306 VRB04KT P6SM SCT250
     FM221100 13005KT 4SM BR BKN012
     FM221400 15009KT P6SM BKN015
     FM221800 17010KT P6SM BKN025
     FM222200 18008KT 6SM -TSRA BKN025CB
     FM230200 20006KT P6SM BKN015=

USA.gov is the U.S. government's official web portal to all federal, state and local government web resources and services.